Time;durP1;ratioP1;P1;durP2;ratioP2;P2;SDS_P1;SDS_P2;PMS_P1;PMS_P2;Temp;Humidity;BMP_temperature;BMP_pressure;BME280_temperature;BME280_humidity;BME280_pressure;Samples;Min_cycle;Max_cycle;Signal;HPM_P1;HPM_P2
2023/02/04 00:02:13;;;;;;;0.60;0.20;;;5.00;90.80;;;;;;20907200;28;20045;-59
2023/02/04 00:12:15;;;;;;;0.55;0.20;;;4.90;91.20;;;;;;20903237;28;20551;-59
2023/02/04 00:22:17;;;;;;;0.95;0.30;;;4.70;91.40;;;;;;20905684;28;20041;-59
2023/02/04 00:32:18;;;;;;;0.63;0.22;;;4.70;92.40;;;;;;20905077;28;20036;-58
2023/02/04 00:42:20;;;;;;;4.78;0.20;;;4.50;92.80;;;;;;20904084;28;20037;-59
2023/02/04 00:52:21;;;;;;;0.73;0.30;;;4.50;92.90;;;;;;20903715;28;20032;-58
2023/02/04 01:02:23;;;;;;;0.52;0.10;;;4.40;93.10;;;;;;20884589;28;20041;-59
2023/02/04 01:12:26;;;;;;;1.02;0.10;;;4.40;93.10;;;;;;20901681;28;20492;-59
2023/02/04 01:22:27;;;;;;;0.45;0.10;;;4.40;93.80;;;;;;20899391;28;20051;-59
2023/02/04 01:32:30;;;;;;;1.80;0.10;;;4.10;93.80;;;;;;20883870;28;20040;-59
2023/02/04 01:42:32;;;;;;;0.52;0.10;;;4.10;94.30;;;;;;20901015;28;20106;-59
2023/02/04 01:52:37;;;;;;;0.55;0.13;;;4.10;94.40;;;;;;20866643;28;20060;-58
2023/02/04 02:02:44;;;;;;;0.75;0.00;;;4.10;94.70;;;;;;20882968;28;20044;-59
2023/02/04 02:12:46;;;;;;;0.22;0.00;;;4.30;94.60;;;;;;20897660;28;20033;-59
2023/02/04 02:22:59;;;;;;;0.20;0.10;;;4.20;95.00;;;;;;20908158;28;20429;-58
2023/02/04 02:33:01;;;;;;;0.80;0.10;;;4.20;95.20;;;;;;20896389;28;20049;-58
2023/02/04 02:43:02;;;;;;;0.40;0.10;;;4.00;95.10;;;;;;20895728;28;20028;-59
2023/02/04 02:53:09;;;;;;;0.20;0.05;;;3.80;95.90;;;;;;20912665;28;20032;-58
2023/02/04 03:03:17;;;;;;;0.30;0.10;;;3.70;96.10;;;;;;20896072;28;20049;-58
2023/02/04 03:13:19;;;;;;;0.00;0.00;;;3.50;96.40;;;;;;20912489;28;20486;-59
2023/02/04 03:23:21;;;;;;;0.40;0.10;;;3.70;96.50;;;;;;20910557;28;20486;-58
2023/02/04 03:33:26;;;;;;;0.20;0.03;;;3.80;96.40;;;;;;20891224;28;20033;-59
2023/02/04 03:43:28;;;;;;;1.52;0.10;;;3.50;96.80;;;;;;20908736;28;20079;-58
2023/02/04 03:53:29;;;;;;;0.32;0.00;;;3.30;97.00;;;;;;20908092;28;20078;-59
2023/02/04 04:03:31;;;;;;;0.10;0.00;;;3.80;96.50;;;;;;20907413;28;20098;-59
2023/02/04 04:13:33;;;;;;;0.30;0.03;;;3.90;96.40;;;;;;20906494;28;20033;-59
2023/02/04 04:23:34;;;;;;;0.10;0.00;;;3.80;96.70;;;;;;20905929;28;20025;-59
2023/02/04 04:33:37;;;;;;;0.08;0.08;;;4.10;96.50;;;;;;20905062;28;20440;-57
2023/02/04 04:43:38;;;;;;;0.28;0.00;;;4.10;96.30;;;;;;20903329;28;20032;-59
2023/02/04 04:53:40;;;;;;;0.13;0.00;;;3.70;96.90;;;;;;20903277;28;20044;-58
2023/02/04 05:03:42;;;;;;;0.10;0.00;;;3.70;97.70;;;;;;20903123;28;20033;-59
2023/02/04 05:13:43;;;;;;;0.03;0.00;;;3.70;98.10;;;;;;20902305;28;20078;-59
2023/02/04 05:23:45;;;;;;;0.08;0.00;;;3.60;98.20;;;;;;20902127;28;20033;-59
2023/02/04 05:33:47;;;;;;;0.00;0.00;;;3.60;98.70;;;;;;20901722;28;20037;-59
2023/02/04 05:43:48;;;;;;;0.00;0.00;;;3.50;98.50;;;;;;20901340;28;20060;-58
2023/02/04 05:53:50;;;;;;;0.00;0.00;;;3.80;97.80;;;;;;20906750;28;20025;-57
2023/02/04 06:03:51;;;;;;;0.08;0.00;;;3.90;97.80;;;;;;20916983;28;20478;-59
2023/02/04 06:13:53;;;;;;;0.45;0.00;;;3.80;97.60;;;;;;20913679;28;20036;-58
2023/02/04 06:23:54;;;;;;;0.00;0.00;;;3.60;98.10;;;;;;20915217;28;20087;-58
2023/02/04 06:33:56;;;;;;;0.52;0.05;;;3.70;97.90;;;;;;20914290;28;20040;-57
2023/02/04 06:43:58;;;;;;;0.00;0.00;;;3.70;97.50;;;;;;20911379;28;20486;-58
2023/02/04 06:53:59;;;;;;;0.00;0.00;;;3.60;98.10;;;;;;20912803;28;20044;-59
2023/02/04 07:04:01;;;;;;;0.00;0.00;;;3.70;97.40;;;;;;20911113;28;20095;-59
2023/02/04 07:14:02;;;;;;;0.00;0.00;;;3.80;97.20;;;;;;20911438;28;20052;-59
2023/02/04 07:24:04;;;;;;;0.00;0.00;;;3.90;96.70;;;;;;20910516;28;20385;-57
2023/02/04 07:34:06;;;;;;;0.47;0.00;;;4.00;96.50;;;;;;20908454;28;20025;-59
2023/02/04 07:44:07;;;;;;;0.00;0.00;;;3.90;96.40;;;;;;20909511;28;20142;-59
2023/02/04 07:54:09;;;;;;;0.00;0.00;;;4.20;96.50;;;;;;20906059;28;20040;-59
2023/02/04 08:04:10;;;;;;;0.00;0.00;;;5.10;94.40;;;;;;20907368;28;20045;-59
2023/02/04 08:14:12;;;;;;;1.40;0.00;;;5.80;95.00;;;;;;20906335;28;20082;-59
2023/02/04 08:24:15;;;;;;;0.52;0.00;;;5.90;94.00;;;;;;20905781;28;20032;-60
2023/02/04 08:34:16;;;;;;;0.10;0.00;;;6.90;92.60;;;;;;20904757;28;20048;-59
2023/02/04 08:44:18;;;;;;;0.10;0.00;;;7.20;91.40;;;;;;20904656;28;20033;-59
2023/02/04 08:54:20;;;;;;;0.00;0.00;;;7.60;89.50;;;;;;20904175;28;20112;-59
2023/02/04 09:04:22;;;;;;;0.00;0.00;;;8.00;88.80;;;;;;20885383;28;20053;-59
2023/02/04 09:14:24;;;;;;;0.00;0.00;;;8.60;86.60;;;;;;20903396;28;20041;-59
2023/02/04 09:24:25;;;;;;;0.00;0.00;;;9.10;81.80;;;;;;20902112;28;20028;-59
2023/02/04 09:34:27;;;;;;;0.10;0.00;;;9.40;80.60;;;;;;20927806;28;20090;-59
2023/02/04 09:44:29;;;;;;;0.05;0.00;;;9.70;78.30;;;;;;20929900;28;20032;-59
2023/02/04 09:54:31;;;;;;;1.45;0.10;;;9.80;78.00;;;;;;20928292;28;20098;-59
2023/02/04 10:04:32;;;;;;;0.10;0.00;;;10.00;77.50;;;;;;20928033;28;20070;-58
2023/02/04 10:14:34;;;;;;;1.67;0.00;;;10.00;73.80;;;;;;20910679;28;20029;-59
2023/02/04 10:24:36;;;;;;;1.45;0.00;;;10.10;73.70;;;;;;20929105;28;20025;-58
2023/02/04 10:34:38;;;;;;;0.52;0.10;;;9.90;73.00;;;;;;20918083;28;20083;-58
2023/02/04 10:44:46;;;;;;;0.10;0.00;;;10.20;73.20;;;;;;20916999;28;20038;-58
2023/02/04 10:54:48;;;;;;;0.00;0.00;;;10.20;70.90;;;;;;20912860;28;20094;-58
2023/02/04 11:04:50;;;;;;;0.40;0.10;;;10.30;70.40;;;;;;20911735;28;20470;-58
2023/02/04 11:14:56;;;;;;;0.08;0.00;;;10.30;71.00;;;;;;20911617;28;20099;-57
2023/02/04 11:24:57;;;;;;;0.13;0.03;;;10.50;69.80;;;;;;20911938;28;20029;-58
2023/02/04 11:35:27;;;;;;;0.00;0.00;;;10.90;68.60;;;;;;20909741;28;20078;-58
2023/02/04 11:45:34;;;;;;;0.03;0.00;;;11.50;68.90;;;;;;20905428;28;20107;-59
2023/02/04 11:55:43;;;;;;;0.63;0.00;;;11.80;65.20;;;;;;20908918;28;20083;-58
2023/02/04 12:05:48;;;;;;;0.10;0.00;;;12.10;68.30;;;;;;20907625;28;20507;-58
2023/02/04 12:16:05;;;;;;;0.35;0.08;;;12.80;66.80;;;;;;20906533;28;20033;-58
2023/02/04 12:26:07;;;;;;;0.00;0.00;;;12.70;64.40;;;;;;20905742;28;20028;-61
2023/02/04 12:36:08;;;;;;;0.70;0.10;;;12.60;65.00;;;;;;20904849;28;20305;-59
2023/02/04 12:46:10;;;;;;;0.38;0.10;;;12.40;62.80;;;;;;20904143;28;20060;-59
2023/02/04 12:56:12;;;;;;;2.92;0.10;;;11.90;63.30;;;;;;20896963;28;20036;-59
2023/02/04 13:06:13;;;;;;;1.23;0.17;;;10.90;64.20;;;;;;20889377;28;20029;-59
2023/02/04 13:16:18;;;;;;;0.47;0.00;;;10.80;64.30;;;;;;20897846;28;20033;-60
2023/02/04 13:26:19;;;;;;;0.10;0.10;;;10.90;64.20;;;;;;20897282;28;20032;-58
2023/02/04 13:36:21;;;;;;;0.25;0.08;;;10.80;63.90;;;;;;20893155;28;20080;-59
2023/02/04 13:46:23;;;;;;;1.85;0.03;;;10.40;62.70;;;;;;20898905;28;20370;-59
2023/02/04 13:56:25;;;;;;;0.20;0.00;;;10.10;59.60;;;;;;20899689;28;20025;-59
2023/02/04 14:06:32;;;;;;;0.03;0.03;;;9.70;61.90;;;;;;20900337;28;20479;-60
2023/02/04 14:16:33;;;;;;;0.10;0.08;;;9.60;59.40;;;;;;20908338;28;20040;-60
2023/02/04 14:26:35;;;;;;;0.63;0.10;;;9.50;59.50;;;;;;20886387;28;20025;-60
2023/02/04 14:36:37;;;;;;;0.00;0.00;;;9.30;57.40;;;;;;20854779;28;20372;-61
2023/02/04 14:46:40;;;;;;;0.30;0.10;;;9.20;56.00;;;;;;20871894;28;20059;-60
2023/02/04 14:56:43;;;;;;;0.03;0.00;;;8.90;60.80;;;;;;20869189;28;20033;-58
2023/02/04 15:06:45;;;;;;;0.28;0.00;;;8.60;59.30;;;;;;20911793;28;20029;-59
2023/02/04 15:16:47;;;;;;;0.10;0.00;;;8.30;63.40;;;;;;20911557;28;20359;-62
2023/02/04 15:26:50;;;;;;;0.82;0.10;;;7.90;65.10;;;;;;20911972;28;20030;-61
2023/02/04 15:36:54;;;;;;;0.20;0.00;;;7.40;65.90;;;;;;20909845;28;20067;-59
2023/02/04 15:46:56;;;;;;;0.45;0.10;;;6.70;72.10;;;;;;20909442;28;20036;-62
2023/02/04 15:56:58;;;;;;;0.10;0.00;;;5.80;75.10;;;;;;20908020;28;20105;-60
2023/02/04 16:07:06;;;;;;;0.00;0.00;;;5.10;79.40;;;;;;20904833;28;20459;-61
2023/02/04 16:17:11;;;;;;;0.20;0.08;;;4.40;79.90;;;;;;20905705;28;20037;-61
2023/02/04 16:27:16;;;;;;;0.30;0.10;;;3.90;82.00;;;;;;20905801;28;20036;-60
2023/02/04 16:37:18;;;;;;;0.00;0.00;;;3.60;83.50;;;;;;20883545;28;20029;-59
2023/02/04 16:47:19;;;;;;;0.10;0.00;;;3.40;83.10;;;;;;20897991;28;20111;-59
2023/02/04 16:57:21;;;;;;;0.10;0.10;;;3.30;82.70;;;;;;20902818;28;20075;-59
2023/02/04 17:07:23;;;;;;;3.17;1.17;;;3.10;80.90;;;;;;20902466;28;20032;-60
2023/02/04 17:17:24;;;;;;;1.15;0.10;;;3.00;82.00;;;;;;20902177;28;20094;-60
2023/02/04 17:27:26;;;;;;;0.32;0.13;;;3.00;76.50;;;;;;20898936;28;20044;-60
2023/02/04 17:37:28;;;;;;;1.23;0.00;;;3.20;76.70;;;;;;20898299;28;20103;-60
2023/02/04 17:47:29;;;;;;;0.22;0.10;;;3.30;75.70;;;;;;20902878;28;20386;-59
2023/02/04 17:57:31;;;;;;;0.20;0.00;;;3.60;69.00;;;;;;20917358;28;20044;-63
2023/02/04 18:07:33;;;;;;;0.20;0.00;;;3.80;67.40;;;;;;20913525;28;20033;-60
2023/02/04 18:17:34;;;;;;;0.15;0.08;;;4.00;66.80;;;;;;20916156;28;20033;-60
2023/02/04 18:27:36;;;;;;;0.50;0.10;;;3.70;70.00;;;;;;20915680;28;20025;-63
2023/02/04 18:37:47;;;;;;;2.28;0.30;;;3.70;66.70;;;;;;20915148;28;20047;-60
2023/02/04 18:47:48;;;;;;;1.08;0.10;;;3.80;62.70;;;;;;20911508;28;20083;-61
2023/02/04 18:57:50;;;;;;;0.40;0.10;;;3.80;64.40;;;;;;20890962;28;20083;-60
2023/02/04 19:08:05;;;;;;;0.20;0.00;;;3.50;66.50;;;;;;20911549;28;20394;-60
2023/02/04 19:18:24;;;;;;;0.75;0.20;;;2.90;68.70;;;;;;20908637;28;20051;-60
2023/02/04 19:28:29;;;;;;;52.50;24.48;;;2.10;77.70;;;;;;20908838;28;20381;-60
2023/02/04 19:38:45;;;;;;;12.00;4.50;;;1.30;92.50;;;;;;20908787;28;20371;-61
2023/02/04 19:48:46;;;;;;;72.95;31.42;;;0.70;92.00;;;;;;20909172;28;20037;-60
2023/02/04 19:58:49;;;;;;;62.95;26.98;;;0.50;99.90;;;;;;20890536;28;20037;-60
2023/02/04 20:09:01;;;;;;;72.85;27.90;;;0.20;99.90;;;;;;20907600;28;20123;-60
2023/02/04 20:19:25;;;;;;;61.50;25.05;;;0.00;99.90;;;;;;20904384;28;20037;-60
2023/02/04 20:29:27;;;;;;;47.17;19.40;;;-0.30;99.90;;;;;;20894848;28;20045;-60
2023/02/04 20:39:36;;;;;;;43.92;17.73;;;-0.60;99.90;;;;;;20903740;28;20052;-60
2023/02/04 20:49:39;;;;;;;39.38;16.25;;;-0.90;99.90;;;;;;20903533;28;20032;-60
2023/02/04 20:59:41;;;;;;;37.08;15.55;;;-1.10;99.90;;;;;;20903243;28;20049;-60
2023/02/04 21:09:43;;;;;;;38.42;15.63;;;-1.20;99.90;;;;;;20902952;28;20036;-60
2023/02/04 21:19:45;;;;;;;31.85;14.40;;;-1.30;99.90;;;;;;20901803;28;20032;-60
2023/02/04 21:29:48;;;;;;;34.60;14.02;;;-1.40;99.90;;;;;;20881188;28;20053;-60
2023/02/04 21:39:50;;;;;;;32.70;12.90;;;-1.50;99.90;;;;;;20900799;28;20433;-60
2023/02/04 21:49:52;;;;;;;27.45;11.48;;;-1.60;99.90;;;;;;20901230;28;20040;-59
2023/02/04 21:59:53;;;;;;;20.90;8.63;;;-1.60;99.90;;;;;;20901278;28;20037;-60
2023/02/04 22:09:55;;;;;;;18.25;6.93;;;-1.60;99.90;;;;;;20900447;28;20037;-60
2023/02/04 22:19:57;;;;;;;14.18;5.38;;;-1.70;99.90;;;;;;20900101;28;20471;-64
2023/02/04 22:30:02;;;;;;;12.38;4.88;;;-1.80;99.90;;;;;;20900863;28;20029;-63
2023/02/04 22:40:05;;;;;;;14.43;5.10;;;-1.80;99.90;;;;;;20909872;28;20073;-60
2023/02/04 22:50:08;;;;;;;14.18;4.70;;;-1.80;99.90;;;;;;20909941;28;20083;-63
2023/02/04 23:00:10;;;;;;;11.75;4.72;;;-2.00;99.90;;;;;;20912328;28;20041;-63
2023/02/04 23:10:12;;;;;;;11.57;4.30;;;-2.10;99.90;;;;;;20912559;28;20025;-62
2023/02/04 23:20:14;;;;;;;12.00;4.93;;;-2.10;99.90;;;;;;20910310;28;20386;-60
2023/02/04 23:30:16;;;;;;;15.35;5.32;;;-2.20;99.90;;;;;;20909582;28;20025;-63
2023/02/04 23:40:18;;;;;;;15.38;6.07;;;-2.40;99.90;;;;;;20908012;28;20101;-60
2023/02/04 23:50:19;;;;;;;15.73;6.15;;;-2.40;99.90;;;;;;20907042;28;20041;-63
